Time;durP1;ratioP1;P1;durP2;ratioP2;P2;SDS_P1;SDS_P2;PMS_P1;PMS_P2;Temp;Humidity;BMP_temperature;BMP_pressure;BME280_temperature;BME280_humidity;BME280_pressure;Samples;Min_cycle;Max_cycle;Signal;HPM_P1;HPM_P2
2022/08/06 00:00:59;;;;;;;4.50;3.00;;;;;;;25.96;41.82;99464.72;7630605;32;38597;-72
2022/08/06 00:05:15;;;;;;;7.18;3.15;;;;;;;25.95;41.56;99465.88;7630624;32;37363;-73
2022/08/06 00:09:38;;;;;;;4.93;2.87;;;;;;;25.94;40.93;99472.63;7630800;32;39046;-73
2022/08/06 00:14:14;;;;;;;4.75;2.95;;;;;;;25.73;40.57;99467.63;7630543;32;40763;-73
2022/08/06 00:18:30;;;;;;;6.90;2.90;;;;;;;25.70;40.19;99471.16;7630055;32;38052;-72
2022/08/06 00:22:46;;;;;;;10.18;3.20;;;;;;;25.63;40.05;99469.09;7630241;32;37178;-73
2022/08/06 00:27:03;;;;;;;4.12;2.95;;;;;;;25.60;40.18;99476.25;7630199;32;40130;-72
2022/08/06 00:31:27;;;;;;;7.07;3.25;;;;;;;25.52;40.33;99470.97;7630190;32;40094;-72
2022/08/06 00:35:47;;;;;;;6.47;2.53;;;;;;;25.28;40.76;99468.31;7871577;27;38081;-71
2022/08/06 00:40:04;;;;;;;6.85;2.92;;;;;;;25.38;40.56;99472.41;7658583;32;36879;-74
2022/08/06 00:44:20;;;;;;;5.15;3.22;;;;;;;25.39;42.31;99468.44;7659836;32;39332;-73
2022/08/06 00:48:46;;;;;;;5.20;2.85;;;;;;;25.34;41.93;99466.00;7659849;32;39913;-73
2022/08/06 00:53:09;;;;;;;6.60;2.85;;;;;;;25.22;41.15;99469.00;7633419;32;36658;-72
2022/08/06 00:57:28;;;;;;;4.45;2.80;;;;;;;25.16;40.89;99465.72;7633462;32;37931;-74
2022/08/06 01:01:45;;;;;;;5.43;3.00;;;;;;;25.20;40.68;99461.00;7633414;32;40258;-72
2022/08/06 01:06:06;;;;;;;7.87;3.12;;;;;;;25.52;40.12;99460.63;7633757;32;41400;-71
2022/08/06 01:10:42;;;;;;;5.78;3.03;;;;;;;25.53;39.85;99455.84;7633370;32;38334;-71
2022/08/06 01:14:58;;;;;;;5.40;3.33;;;;;;;25.25;40.67;99455.13;7633253;32;37157;-72
2022/08/06 01:19:25;;;;;;;8.60;3.35;;;;;;;25.08;40.68;99458.47;7633649;32;40141;-73
2022/08/06 01:24:35;;;;;;;6.43;2.80;;;;;;;25.31;40.46;99450.00;7632641;32;41287;-73
2022/08/06 01:29:26;;;;;;;5.35;2.80;;;;;;;25.13;40.53;99449.75;7652457;32;38130;-73
2022/08/06 01:33:54;;;;;;;7.12;2.97;;;;;;;25.30;39.98;99448.38;7659267;32;38088;-73
2022/08/06 01:38:22;;;;;;;4.37;3.10;;;;;;;25.05;40.40;99460.00;7659140;32;39376;-73
2022/08/06 01:42:39;;;;;;;6.15;3.30;;;;;;;25.21;39.95;99451.44;7646653;32;40054;-73
2022/08/06 01:47:08;;;;;;;4.90;3.20;;;;;;;24.94;40.89;99447.91;7645057;32;38024;-73
2022/08/06 01:51:33;;;;;;;5.78;3.30;;;;;;;25.01;41.14;99447.19;7659092;32;37953;-73
2022/08/06 01:56:10;;;;;;;6.82;3.50;;;;;;;24.52;42.84;99443.28;7645651;32;41043;-72
2022/08/06 02:00:33;;;;;;;8.23;3.50;;;;;;;24.52;43.49;99440.50;7619790;32;39946;-73
2022/08/06 02:04:54;;;;;;;4.53;3.37;;;;;;;24.24;44.46;99443.63;7632813;32;38049;-73
2022/08/06 02:09:15;;;;;;;6.18;3.72;;;;;;;24.11;45.85;99440.22;7628406;32;37071;-73
2022/08/06 02:13:40;;;;;;;6.25;4.07;;;;;;;24.05;47.53;99441.72;7658822;32;40097;-74
2022/08/06 02:18:04;;;;;;;5.05;3.40;;;;;;;24.16;46.72;99448.25;7658673;32;41253;-73
2022/08/06 02:22:23;;;;;;;6.75;3.70;;;;;;;24.34;45.49;99445.78;7645297;32;38827;-72
2022/08/06 02:26:43;;;;;;;8.00;3.47;;;;;;;24.36;45.01;99435.88;7645653;32;36839;-73
2022/08/06 02:30:59;;;;;;;6.15;3.72;;;;;;;24.41;44.82;99445.91;7658700;32;39304;-73
2022/08/06 02:35:16;;;;;;;8.93;4.03;;;;;;;24.38;44.93;99444.66;7658598;32;40812;-72
2022/08/06 02:39:44;;;;;;;6.12;3.20;;;;;;;24.26;45.09;99439.28;7648218;32;38091;-72
2022/08/06 02:44:31;;;;;;;5.28;3.42;;;;;;;24.33;44.13;99447.75;7620372;32;37008;-73
2022/08/06 02:48:52;;;;;;;6.37;3.75;;;;;;;24.20;44.51;99457.50;7632298;32;39334;-73
2022/08/06 02:53:11;;;;;;;6.37;3.62;;;;;;;24.02;45.11;99450.81;7632197;32;39761;-73
2022/08/06 02:58:01;;;;;;;5.53;3.60;;;;;;;24.09;44.98;99440.59;7649636;32;37951;-79
2022/08/06 03:02:22;;;;;;;6.12;3.37;;;;;;;24.05;45.04;99448.09;7647110;32;38022;-78
2022/08/06 03:06:44;;;;;;;5.70;3.60;;;;;;;24.32;44.68;99446.16;7645639;32;38913;-79
2022/08/06 03:11:03;;;;;;;7.35;3.53;;;;;;;24.34;45.18;99460.50;7644708;32;40954;-80
2022/08/06 03:15:22;;;;;;;4.57;3.60;;;;;;;24.34;45.66;99457.72;7644765;32;36644;-78
2022/08/06 03:20:00;;;;;;;5.22;3.75;;;;;;;24.59;44.87;99454.56;7657597;32;38447;-78
2022/08/06 03:24:17;;;;;;;5.70;3.45;;;;;;;24.67;44.59;99459.06;7642992;32;40077;-79
2022/08/06 03:28:35;;;;;;;5.47;3.53;;;;;;;24.64;44.71;99448.66;7647724;32;40871;-79
2022/08/06 03:32:52;;;;;;;7.85;3.53;;;;;;;24.52;45.27;99465.56;7653611;32;38571;-78
2022/08/06 03:37:10;;;;;;;5.22;3.45;;;;;;;24.72;44.48;99461.53;7644958;32;36893;-78
2022/08/06 03:41:34;;;;;;;6.97;3.67;;;;;;;24.63;44.28;99455.44;7657450;32;40246;-79
2022/08/06 03:46:10;;;;;;;5.40;3.33;;;;;;;24.72;43.66;99466.31;7601477;32;40235;-78
2022/08/06 03:50:32;;;;;;;6.43;3.40;;;;;;;24.62;43.34;99455.81;7605011;32;38036;-79
2022/08/06 03:54:51;;;;;;;9.88;3.75;;;;;;;24.47;44.20;99461.09;7605046;32;37958;-79
2022/08/06 03:59:09;;;;;;;4.95;3.50;;;;;;;24.32;45.29;99454.53;7591658;32;39280;-75
2022/08/06 04:03:25;;;;;;;12.43;4.07;;;;;;;23.60;48.71;99471.88;7591511;32;40766;-77
2022/08/06 04:07:45;;;;;;;7.37;4.45;;;;;;;24.07;48.19;99470.00;7604814;32;38004;-79
2022/08/06 04:12:11;;;;;;;7.80;4.32;;;;;;;24.02;48.94;99489.78;7608734;32;37132;-77
2022/08/06 04:16:48;;;;;;;9.75;4.05;;;;;;;24.17;48.45;99494.44;7607652;32;39492;-78
2022/08/06 04:21:08;;;;;;;5.87;3.55;;;;;;;24.11;48.55;99501.47;7594711;32;39967;-77
2022/08/06 04:25:49;;;;;;;5.60;3.90;;;;;;;24.08;48.91;99497.47;7596029;32;38752;-77
2022/08/06 04:30:06;;;;;;;5.85;4.10;;;;;;;24.23;48.34;99504.09;7599792;32;37159;-79
2022/08/06 04:34:26;;;;;;;7.75;3.97;;;;;;;24.27;48.93;99506.97;7633758;32;39294;-78
2022/08/06 04:38:45;;;;;;;5.78;4.12;;;;;;;24.36;48.76;99501.94;7659346;32;40742;-83
2022/08/06 04:43:08;;;;;;;;;;;;;;;24.67;47.63;99500.06;7647577;32;38031;-76
2022/08/06 04:47:24;;;;;;;6.85;4.22;;;;;;;24.82;47.44;99506.66;7653054;32;36874;-78
2022/08/06 04:51:57;;;;;;;6.28;4.12;;;;;;;24.44;49.25;99506.44;7622283;32;40034;-78
2022/08/06 04:56:33;;;;;;;6.62;4.57;;;;;;;24.71;48.23;99512.06;7632948;32;40222;-76
2022/08/06 05:00:56;;;;;;;6.07;4.00;;;;;;;24.76;49.24;99517.34;7633299;32;38737;-76
2022/08/06 05:05:22;;;;;;;7.55;4.28;;;;;;;24.83;49.10;99514.66;7633436;32;37838;-77
2022/08/06 05:09:38;;;;;;;6.37;4.12;;;;;;;25.05;47.59;99521.34;7633082;32;40019;-77
2022/08/06 05:14:02;;;;;;;7.40;4.20;;;;;;;24.95;49.89;99530.38;7646318;32;39967;-76
2022/08/06 05:18:32;;;;;;;8.35;4.05;;;;;;;24.90;50.24;99533.47;7633917;32;38028;-77
2022/08/06 05:23:16;;;;;;;8.00;3.62;;;;;;;25.15;48.20;99535.81;7622216;32;38442;-77
2022/08/06 05:27:35;;;;;;;5.30;3.75;;;;;;;24.87;46.51;99554.56;7646538;32;40092;-79
2022/08/06 05:32:09;;;;;;;11.55;4.00;;;;;;;24.73;46.98;99554.31;7643200;32;39937;-77
2022/08/06 05:36:26;;;;;;;8.18;4.10;;;;;;;24.65;47.96;99570.12;7619401;32;37746;-75
2022/08/06 05:40:45;;;;;;;6.60;4.00;;;;;;;24.91;47.94;99576.91;7633066;32;37117;-77
2022/08/06 05:45:18;;;;;;;15.73;4.03;;;;;;;24.89;47.28;99579.28;7632883;32;40104;-74
2022/08/06 05:49:43;;;;;;;7.85;4.05;;;;;;;25.19;46.62;99584.09;7620082;32;40876;-77
2022/08/06 05:54:26;;;;;;;6.75;4.35;;;;;;;25.21;46.33;99584.53;7633055;32;37957;-75
2022/08/06 05:58:53;;;;;;;6.15;4.22;;;;;;;25.40;46.27;99584.44;7633294;32;37236;-77
2022/08/06 06:03:12;;;;;;;5.60;3.80;;;;;;;25.75;45.63;99574.94;7646642;32;39035;-79
2022/08/06 06:07:43;;;;;;;9.95;3.95;;;;;;;26.04;45.13;99592.06;7627994;32;40832;-79
2022/08/06 06:12:20;;;;;;;9.45;4.18;;;;;;;26.27;44.68;99591.09;7632144;32;38934;-78
2022/08/06 06:17:04;;;;;;;9.70;4.15;;;;;;;26.41;43.90;99589.25;7643536;32;37911;-74
2022/08/06 06:21:59;;;;;;;4.47;3.60;;;;;;;26.20;41.42;99591.84;7658704;32;40151;-79
2022/08/06 06:26:32;;;;;;;6.00;3.67;;;;;;;26.30;40.98;99593.97;7647650;32;40911;-78
2022/08/06 06:31:26;;;;;;;6.18;4.03;;;;;;;26.43;40.63;99600.84;7657786;32;37732;-77
2022/08/06 06:36:12;;;;;;;6.82;3.90;;;;;;;25.84;42.73;99606.16;7631611;32;38515;-76
2022/08/06 06:41:02;;;;;;;8.13;3.90;;;;;;;25.75;42.13;99608.44;7619960;32;40158;-75
2022/08/06 06:45:51;;;;;;;8.63;3.83;;;;;;;26.09;42.05;99604.87;7639156;32;40044;-73
2022/08/06 06:50:34;;;;;;;7.43;4.33;;;;;;;26.40;41.91;99612.00;7657624;32;38127;-74
2022/08/06 06:55:01;;;;;;;8.32;4.87;;;;;;;26.83;40.92;99604.03;7645459;32;37123;-75
2022/08/06 06:59:38;;;;;;;8.13;4.40;;;;;;;27.06;41.10;99608.62;7646414;32;40170;-75
2022/08/06 07:04:17;;;;;;;7.25;4.55;;;;;;;27.08;39.17;99606.22;7657114;32;40378;-74
2022/08/06 07:08:37;;;;;;;10.30;4.80;;;;;;;26.98;40.49;99605.75;7641316;32;38370;-74
2022/08/06 07:12:58;;;;;;;8.60;4.35;;;;;;;26.72;40.78;99614.34;7644775;32;37189;-75
2022/08/06 07:17:18;;;;;;;7.03;4.40;;;;;;;26.79;42.69;99622.78;7645730;32;39294;-77
2022/08/06 07:21:55;;;;;;;18.75;4.68;;;;;;;26.94;40.39;99616.12;7640031;32;40190;-77
2022/08/06 07:26:14;;;;;;;11.12;4.40;;;;;;;27.18;40.51;99608.28;7657686;32;37866;-76
2022/08/06 07:30:32;;;;;;;7.00;4.45;;;;;;;27.23;39.47;99609.94;7656015;32;38123;-73
2022/08/06 07:34:49;;;;;;;6.95;4.20;;;;;;;27.43;40.40;99607.72;7643850;32;39250;-74
2022/08/06 07:39:10;;;;;;;6.43;4.20;;;;;;;27.22;39.63;99597.94;7629173;32;39732;-73
2022/08/06 07:43:38;;;;;;;7.47;4.32;;;;;;;27.47;39.52;99600.13;7628944;32;37830;-73
2022/08/06 07:47:56;;;;;;;12.50;4.00;;;;;;;27.54;39.06;99598.19;7639670;32;36790;-74
2022/08/06 07:52:15;;;;;;;7.47;4.50;;;;;;;27.93;37.96;99601.59;7628151;32;39920;-74
2022/08/06 07:56:43;;;;;;;7.25;4.15;;;;;;;28.40;36.97;99597.69;7618970;32;40667;-75
2022/08/06 08:01:17;;;;;;;9.75;4.57;;;;;;;28.36;37.38;99599.69;7629643;32;38757;-74
2022/08/06 08:10:17;;;;;;;9.95;4.22;;;;;;;28.67;36.01;99602.19;7643615;32;39907;-75
2022/08/06 08:14:45;;;;;;;6.40;4.18;;;;;;;29.57;35.72;99600.09;7655125;32;40834;-75
2022/08/06 08:19:30;;;;;;;7.53;4.05;;;;;;;29.98;34.29;99595.94;7652556;32;38827;-74
2022/08/06 08:23:51;;;;;;;6.97;3.70;;;;;;;30.09;33.51;99602.31;7652208;32;36984;-75
2022/08/06 08:28:11;;;;;;;5.97;3.80;;;;;;;30.08;34.07;99595.91;7640013;32;40141;-74
2022/08/06 08:32:32;;;;;;;7.78;4.18;;;;;;;30.61;33.43;99598.81;7652247;32;39754;-75
2022/08/06 08:36:48;;;;;;;5.87;3.90;;;;;;;30.67;33.18;99586.72;7632274;32;37530;-74
2022/08/06 08:41:25;;;;;;;5.97;3.75;;;;;;;30.63;32.07;99591.56;7629355;32;37327;-75
2022/08/06 08:46:02;;;;;;;7.15;3.95;;;;;;;31.24;32.67;99585.41;7619080;32;39503;-74
2022/08/06 08:50:23;;;;;;;5.12;3.67;;;;;;;30.84;31.40;99590.59;7636709;32;39914;-74
2022/08/06 08:54:46;;;;;;;8.73;3.60;;;;;;;31.09;31.21;99589.59;7655613;32;37977;-74
2022/08/06 08:59:05;;;;;;;7.20;3.85;;;;;;;31.50;30.59;99582.37;7659520;32;38246;-75
2022/08/06 09:03:41;;;;;;;9.05;3.72;;;;;;;31.75;29.96;99585.69;7646162;32;39774;-73
2022/08/06 09:08:03;;;;;;;6.60;3.60;;;;;;;32.20;29.64;99581.87;7648757;32;40705;-75
2022/08/06 09:12:34;;;;;;;7.57;3.70;;;;;;;31.74;29.92;99578.44;7647415;32;37746;-75
2022/08/06 09:17:04;;;;;;;6.18;3.65;;;;;;;32.11;28.97;99576.78;7658168;32;37096;-75
2022/08/06 09:21:25;;;;;;;8.50;3.47;;;;;;;32.38;28.19;99581.63;7645869;32;39410;-74
2022/08/06 09:25:51;;;;;;;9.07;3.60;;;;;;;32.05;28.57;99578.50;7631318;32;40893;-74
2022/08/06 09:30:08;;;;;;;8.93;3.60;;;;;;;32.34;27.30;99580.88;7656099;32;39069;-74
2022/08/06 09:34:42;;;;;;;12.43;3.70;;;;;;;32.63;28.86;99577.66;7656195;32;37648;-73
2022/08/06 09:39:05;;;;;;;9.50;3.75;;;;;;;32.67;28.57;99592.53;7643393;32;39086;-74
2022/08/06 09:43:26;;;;;;;6.25;3.95;;;;;;;33.04;27.29;99587.84;7659260;32;40401;-76
2022/08/06 09:48:05;;;;;;;9.50;3.45;;;;;;;33.38;27.54;99584.81;7658518;32;38339;-75
2022/08/06 09:52:33;;;;;;;5.28;3.78;;;;;;;33.83;27.27;99569.41;7659066;32;37231;-75
2022/08/06 09:56:58;;;;;;;9.75;3.72;;;;;;;33.88;26.97;99573.78;7659063;32;39283;-75
2022/08/06 10:01:25;;;;;;;9.00;4.10;;;;;;;34.14;26.52;99572.75;7642722;32;40009;-76
2022/08/06 10:05:43;;;;;;;6.20;3.95;;;;;;;34.18;25.79;99564.19;7638872;32;37794;-75
2022/08/06 10:10:07;;;;;;;5.85;4.05;;;;;;;34.56;26.58;99558.87;7655842;32;36880;-73
2022/08/06 10:14:26;;;;;;;10.45;3.78;;;;;;;34.52;26.58;99557.38;7658852;32;39253;-74
2022/08/06 10:18:46;;;;;;;7.07;3.60;;;;;;;35.07;24.92;99555.59;7645593;32;40080;-75
2022/08/06 10:23:13;;;;;;;8.65;3.72;;;;;;;35.13;24.91;99550.97;7658304;32;38748;-74
2022/08/06 10:27:36;;;;;;;7.80;3.95;;;;;;;35.31;25.03;99558.22;7639795;32;36964;-75
2022/08/06 10:31:54;;;;;;;10.10;3.90;;;;;;;34.58;26.14;99555.59;7611589;32;39818;-76
2022/08/06 10:36:13;;;;;;;8.63;3.95;;;;;;;34.76;25.45;99553.16;7635733;32;40720;-75
2022/08/06 10:40:38;;;;;;;7.62;4.10;;;;;;;34.43;25.87;99552.34;7623179;32;38725;-74
2022/08/06 10:44:57;;;;;;;6.03;3.62;;;;;;;34.12;26.85;99551.84;7627462;32;37612;-73
2022/08/06 10:49:14;;;;;;;6.80;3.92;;;;;;;33.72;27.10;99546.22;7631772;32;39146;-75
2022/08/06 10:53:50;;;;;;;6.22;3.70;;;;;;;34.20;27.05;99541.94;7638489;32;40239;-74
2022/08/06 10:58:24;;;;;;;8.70;4.25;;;;;;;34.96;26.44;99546.56;7646460;32;37920;-74
2022/08/06 11:02:41;;;;;;;8.52;4.60;;;;;;;34.86;27.31;99541.97;7657039;32;37045;-73
2022/08/06 11:07:24;;;;;;;16.27;4.80;;;;;;;34.82;26.30;99546.94;7656790;32;40082;-75
2022/08/06 11:12:21;;;;;;;17.80;4.65;;;;;;;35.67;25.63;99540.97;7654495;32;39903;-73
2022/08/06 11:16:38;;;;;;;11.43;4.47;;;;;;;35.97;25.21;99532.44;7639737;32;37728;-75
2022/08/06 11:20:58;;;;;;;7.45;4.90;;;;;;;35.71;24.80;99540.88;7648976;32;37246;-73
2022/08/06 11:25:14;;;;;;;9.30;4.50;;;;;;;35.72;24.97;99545.31;7641500;32;39880;-76
2022/08/06 11:30:08;;;;;;;11.12;5.30;;;;;;;36.66;24.33;99532.62;7641967;32;39771;-74
2022/08/06 11:34:43;;;;;;;12.70;5.32;;;;;;;36.71;24.95;99527.66;7629493;32;37651;-73
2022/08/06 11:39:07;;;;;;;14.63;5.45;;;;;;;36.85;25.27;99530.00;7630876;32;37824;-73
2022/08/06 11:44:04;;;;;;;14.87;6.00;;;;;;;36.92;25.02;99538.25;7654030;32;39300;-74
2022/08/06 11:48:20;;;;;;;9.43;5.75;;;;;;;37.05;25.24;99532.53;7657053;32;39882;-74
2022/08/06 11:52:47;;;;;;;10.85;5.45;;;;;;;36.84;25.44;99536.91;7656988;32;39055;-75
2022/08/06 12:01:40;;;;;;;15.38;5.90;;;;;;;37.06;24.91;99527.66;7656989;32;40112;-75
2022/08/06 12:05:57;;;;;;;14.65;5.85;;;;;;;37.28;25.05;99528.50;7656836;32;40062;-74
2022/08/06 12:10:16;;;;;;;12.55;5.60;;;;;;;37.47;24.26;99531.47;7642304;32;37051;-76
2022/08/06 12:14:44;;;;;;;8.13;5.37;;;;;;;38.04;23.35;99523.59;7630753;32;37386;-74
2022/08/06 12:19:11;;;;;;;8.18;6.00;;;;;;;38.02;23.80;99534.66;7630340;32;40060;-76
2022/08/06 12:23:28;;;;;;;13.65;6.07;;;;;;;37.89;24.02;99522.56;7630210;32;40760;-75
2022/08/06 12:28:06;;;;;;;9.57;5.93;;;;;;;37.06;24.80;99541.84;7629600;32;38251;-75
2022/08/06 12:32:34;;;;;;;9.95;6.05;;;;;;;36.80;25.44;99531.34;7634490;32;38583;-74
2022/08/06 12:37:19;;;;;;;9.38;5.70;;;;;;;36.92;25.28;99538.25;7632199;32;40213;-73
2022/08/06 12:41:51;;;;;;;11.85;6.15;;;;;;;36.89;24.58;99556.22;7621337;32;40334;-74
2022/08/06 12:46:10;;;;;;;16.37;5.50;;;;;;;36.81;24.98;99552.06;7633393;32;36953;-74
2022/08/06 12:50:41;;;;;;;8.57;5.25;;;;;;;37.04;24.69;99559.34;7633310;32;38090;-74
2022/08/06 12:54:57;;;;;;;8.98;5.47;;;;;;;37.25;24.78;99560.66;7633336;32;39902;-74
2022/08/06 12:59:13;;;;;;;11.23;5.47;;;;;;;37.83;23.46;99561.41;7633431;32;40088;-76
2022/08/06 13:03:43;;;;;;;8.13;5.47;;;;;;;37.64;23.33;99546.28;7637691;32;38777;-76
2022/08/06 13:08:05;;;;;;;11.50;5.15;;;;;;;37.09;24.29;99555.94;7640966;32;35702;-76
2022/08/06 13:12:22;;;;;;;8.15;5.68;;;;;;;37.14;24.00;99554.56;7649842;32;39535;-77
2022/08/06 13:17:10;;;;;;;11.65;5.32;;;;;;;36.97;24.39;99563.25;7658931;32;40331;-77
2022/08/06 13:21:39;;;;;;;11.40;5.10;;;;;;;37.78;23.81;99556.34;7647720;32;37974;-78
2022/08/06 13:26:19;;;;;;;7.10;5.07;;;;;;;37.82;23.29;99568.34;7647679;32;38504;-77
2022/08/06 13:30:46;;;;;;;10.60;5.20;;;;;;;38.02;22.84;99560.25;7658476;32;39933;-80
2022/08/06 13:35:10;;;;;;;9.65;5.32;;;;;;;37.40;23.79;99572.31;7644052;32;39540;-79
2022/08/06 13:39:32;;;;;;;8.15;5.10;;;;;;;37.22;24.35;99590.00;7637445;32;38103;-79
2022/08/06 13:43:49;;;;;;;14.57;5.22;;;;;;;36.96;24.49;99589.25;7632945;32;37174;-79
2022/08/06 13:48:11;;;;;;;7.37;4.00;;;;;;;36.82;24.87;99582.84;7632923;32;39203;-79
2022/08/06 13:52:38;;;;;;;10.00;3.97;;;;;;;36.43;26.18;99589.78;7632868;32;39938;-78
2022/08/06 13:56:59;;;;;;;8.55;3.87;;;;;;;35.76;27.21;99593.41;7632668;32;38809;-78
2022/08/06 14:01:16;;;;;;;5.10;3.83;;;;;;;35.92;27.03;99594.12;7619211;32;37810;-78
2022/08/06 14:05:32;;;;;;;14.38;4.55;;;;;;;36.24;26.85;99588.75;7632537;32;39362;-79
2022/08/06 14:09:54;;;;;;;7.28;3.80;;;;;;;35.70;27.28;99591.09;7632576;32;40710;-79
2022/08/06 14:14:27;;;;;;;5.32;3.37;;;;;;;35.54;27.01;99591.94;7632355;32;38734;-79
2022/08/06 14:18:43;;;;;;;17.92;4.70;;;;;;;35.64;27.26;99594.94;7632446;32;37008;-78
2022/08/06 14:23:18;;;;;;;6.20;3.17;;;;;;;35.75;26.59;99591.81;7632311;32;40216;-78
2022/08/06 14:27:38;;;;;;;4.87;2.72;;;;;;;35.16;27.86;99601.03;7632308;32;40994;-78
2022/08/06 14:31:59;;;;;;;5.67;2.97;;;;;;;34.78;28.72;99604.44;7632323;32;38055;-78
2022/08/06 14:36:16;;;;;;;5.97;3.42;;;;;;;34.02;29.71;99616.66;7631944;32;37069;-79
2022/08/06 14:45:18;;;;;;;5.57;2.70;;;;;;;33.42;30.87;99653.34;7631975;32;38537;-78
2022/08/06 14:49:38;;;;;;;5.60;3.17;;;;;;;32.55;32.48;99659.56;7631965;32;38136;-78
2022/08/06 14:54:07;;;;;;;6.15;2.62;;;;;;;32.32;32.47;99667.94;7631297;32;37408;-77
2022/08/06 14:58:28;;;;;;;3.40;2.70;;;;;;;32.51;32.46;99674.94;7631626;32;40108;-78
2022/08/06 15:02:45;;;;;;;3.55;2.40;;;;;;;31.70;33.91;99679.16;7631694;32;40798;-75
2022/08/06 15:07:04;;;;;;;4.25;2.47;;;;;;;32.12;33.58;99682.69;7631306;32;37849;-76
2022/08/06 15:11:40;;;;;;;3.67;2.30;;;;;;;31.66;34.04;99703.72;7631601;32;37848;-77
2022/08/06 15:16:15;;;;;;;3.40;2.40;;;;;;;31.86;33.78;99694.66;7631459;32;38845;-77
2022/08/06 15:20:52;;;;;;;5.18;2.22;;;;;;;31.47;34.87;99693.03;7623370;32;40265;-76
2022/08/06 15:25:09;;;;;;;7.10;2.33;;;;;;;31.38;34.32;99697.13;7633084;32;36487;-78
2022/08/06 15:29:46;;;;;;;3.53;2.40;;;;;;;31.98;33.39;99694.13;7644050;32;37464;-77
2022/08/06 15:34:02;;;;;;;7.07;2.42;;;;;;;32.66;32.82;99695.31;7643094;32;40124;-78
2022/08/06 15:38:26;;;;;;;2.95;1.95;;;;;;;32.75;32.29;99701.22;7636623;32;40933;-77
2022/08/06 15:42:42;;;;;;;2.53;2.33;;;;;;;32.14;32.58;99702.81;7639142;32;37691;-78
2022/08/06 15:46:58;;;;;;;5.45;2.30;;;;;;;31.54;34.16;99712.69;7632012;32;36816;-78
2022/08/06 15:51:15;;;;;;;5.75;1.95;;;;;;;31.46;34.54;99714.78;7657216;32;39328;-77
2022/08/06 15:55:45;;;;;;;4.82;2.35;;;;;;;30.98;35.05;99713.53;7657223;32;40875;-78
2022/08/06 16:00:04;;;;;;;4.53;2.20;;;;;;;30.87;35.68;99707.16;7650857;32;38058;-79
2022/08/06 16:04:33;;;;;;;4.15;2.00;;;;;;;30.69;36.12;99705.25;7631275;32;37890;-79
2022/08/06 16:08:53;;;;;;;2.45;1.73;;;;;;;31.22;34.87;99710.97;7633883;32;40483;-80
2022/08/06 16:13:18;;;;;;;2.90;1.85;;;;;;;30.99;35.21;99709.50;7632803;32;40655;-79
2022/08/06 16:17:35;;;;;;;2.25;1.80;;;;;;;30.78;35.78;99709.63;7631636;32;39002;-78
2022/08/06 16:22:11;;;;;;;2.65;2.05;;;;;;;30.87;35.67;99718.41;7636958;32;37380;-78
2022/08/06 16:26:29;;;;;;;2.22;1.52;;;;;;;30.76;36.00;99712.84;7657870;32;40253;-78
2022/08/06 16:30:57;;;;;;;3.58;2.10;;;;;;;31.14;34.91;99726.28;7658244;32;39979;-79
2022/08/06 16:35:31;;;;;;;2.10;1.73;;;;;;;30.61;35.69;99731.81;7633417;32;38564;-79
2022/08/06 16:39:56;;;;;;;2.58;1.87;;;;;;;30.02;36.57;99726.81;7658959;32;37041;-77
2022/08/06 16:44:16;;;;;;;2.37;2.00;;;;;;;30.26;36.20;99730.75;7646844;32;39905;-80
2022/08/06 16:48:50;;;;;;;2.42;1.98;;;;;;;29.86;36.85;99741.31;7621473;32;40715;-79
2022/08/06 16:53:08;;;;;;;2.78;1.92;;;;;;;29.95;37.57;99741.69;7635902;32;38005;-80
2022/08/06 16:57:44;;;;;;;5.03;1.50;;;;;;;29.97;37.11;99760.94;7621756;32;38182;-76
2022/08/06 17:06:49;;;;;;;3.87;1.60;;;;;;;29.23;38.22;99756.97;7622922;32;40155;-76
2022/08/06 17:11:07;;;;;;;2.20;1.60;;;;;;;29.35;37.93;99760.16;7634706;32;36988;-76
2022/08/06 17:15:44;;;;;;;6.72;1.85;;;;;;;29.26;38.05;99762.56;7632860;32;38271;-77
2022/08/06 17:20:09;;;;;;;2.40;1.65;;;;;;;29.08;38.69;99770.97;7656210;32;39873;-77
2022/08/06 17:24:31;;;;;;;1.77;1.62;;;;;;;29.02;38.52;99778.94;7659855;32;40391;-77
2022/08/06 17:28:53;;;;;;;5.20;1.87;;;;;;;29.02;38.16;99778.16;7659067;32;37983;-75
2022/08/06 17:33:09;;;;;;;2.62;1.75;;;;;;;28.23;39.51;99789.84;7653186;32;37112;-76
2022/08/06 17:37:25;;;;;;;2.10;1.87;;;;;;;28.29;39.42;99787.47;7643142;32;39921;-76
2022/08/06 17:41:59;;;;;;;3.25;1.65;;;;;;;27.94;40.39;99796.47;7652571;32;40117;-76
2022/08/06 17:46:27;;;;;;;3.20;1.40;;;;;;;28.07;40.05;99798.56;7656732;32;38695;-76
2022/08/06 17:50:54;;;;;;;1.98;1.60;;;;;;;27.75;40.59;99812.28;7657174;32;37705;-76
2022/08/06 17:55:12;;;;;;;6.35;1.90;;;;;;;28.05;39.70;99812.16;7652689;32;39311;-78
2022/08/06 17:59:28;;;;;;;2.58;1.55;;;;;;;27.71;40.36;99815.06;7637880;32;40573;-77
2022/08/06 18:03:48;;;;;;;5.05;2.20;;;;;;;27.50;40.92;99810.09;7643661;32;37913;-76
2022/08/06 18:08:06;;;;;;;4.75;1.67;;;;;;;27.62;40.95;99817.41;7644123;32;37808;-76
2022/08/06 18:12:37;;;;;;;2.70;1.62;;;;;;;27.70;40.75;99824.69;7656839;32;40089;-76
2022/08/06 18:17:03;;;;;;;1.70;1.60;;;;;;;27.34;41.11;99834.75;7658800;32;39908;-75
2022/08/06 18:21:22;;;;;;;3.17;1.50;;;;;;;27.33;40.94;99827.53;7653899;32;156728;-76
2022/08/06 18:25:40;;;;;;;2.35;1.60;;;;;;;27.32;40.96;99831.50;7658732;32;37128;-83
2022/08/06 18:30:21;;;;;;;2.47;1.40;;;;;;;27.04;41.73;99837.59;7658002;32;38154;-75
2022/08/06 18:34:57;;;;;;;2.10;1.48;;;;;;;26.91;41.86;99851.84;7657732;32;40177;-75
2022/08/06 18:39:15;;;;;;;2.20;1.50;;;;;;;26.98;41.28;99863.09;7658560;32;37863;-74
2022/08/06 18:43:38;;;;;;;1.70;1.50;;;;;;;26.88;41.75;99869.38;7658463;32;36813;-75
2022/08/06 18:48:05;;;;;;;2.28;1.30;;;;;;;26.47;42.66;99874.78;7658534;32;39315;-75
2022/08/06 18:52:25;;;;;;;2.40;1.48;;;;;;;26.49;42.71;99885.59;7638658;32;40659;-80
2022/08/06 18:56:43;;;;;;;3.03;1.50;;;;;;;26.36;42.74;99888.63;7644082;32;37690;-79
2022/08/06 19:01:04;;;;;;;2.37;1.58;;;;;;;25.85;43.68;99897.34;7632133;32;37024;-82
2022/08/06 19:05:37;;;;;;;1.52;1.35;;;;;;;25.85;43.80;99895.37;7639870;32;39284;-81
2022/08/06 19:10:07;;;;;;;1.45;1.35;;;;;;;25.38;44.96;99904.88;7660104;32;39694;-81
2022/08/06 19:14:30;;;;;;;3.65;1.83;;;;;;;25.42;44.60;99914.16;7657833;32;37906;-80
2022/08/06 19:18:48;;;;;;;2.25;1.67;;;;;;;25.59;44.13;99900.88;7657692;32;37077;-82
2022/08/06 19:23:12;;;;;;;1.87;1.40;;;;;;;25.56;44.18;99915.56;7657923;32;39972;-81
2022/08/06 19:27:48;;;;;;;2.58;1.70;;;;;;;25.49;44.06;99910.66;7656880;32;40108;-80
2022/08/06 19:32:25;;;;;;;4.03;1.30;;;;;;;25.83;43.45;99911.69;7656959;32;39257;-83
2022/08/06 19:36:46;;;;;;;2.95;1.80;;;;;;;25.52;44.20;99923.88;7657547;32;36871;-81
2022/08/06 19:41:03;;;;;;;2.42;1.83;;;;;;;25.53;44.15;99913.53;7657398;32;39530;-82
2022/08/06 19:45:22;;;;;;;1.92;1.60;;;;;;;25.20;45.31;99920.44;7656939;32;39167;-75
2022/08/06 19:49:58;;;;;;;2.90;1.50;;;;;;;24.67;46.31;99923.72;7630634;32;38158;-76
2022/08/06 19:54:18;;;;;;;3.35;1.50;;;;;;;24.67;46.57;99926.50;7637748;32;37846;-78
2022/08/06 19:58:41;;;;;;;2.85;1.80;;;;;;;24.45;46.86;99927.97;7657192;32;40228;-77
2022/08/06 20:02:59;;;;;;;1.80;1.50;;;;;;;24.19;47.96;99944.06;7656906;32;39897;-76
2022/08/06 20:07:15;;;;;;;3.00;1.92;;;;;;;24.40;47.01;99936.59;7650566;32;37893;-76
2022/08/06 20:11:41;;;;;;;2.40;1.60;;;;;;;24.16;47.75;99941.19;7644342;32;35800;-75
2022/08/06 20:16:20;;;;;;;3.80;1.85;;;;;;;24.06;48.08;99944.50;7632579;32;39685;-76
2022/08/06 20:20:39;;;;;;;2.70;1.85;;;;;;;24.03;47.29;99946.06;7653652;32;40017;-76
2022/08/06 20:25:00;;;;;;;3.03;1.73;;;;;;;24.11;47.03;99960.94;7630196;32;38647;-76
2022/08/06 20:29:36;;;;;;;2.85;1.65;;;;;;;24.11;47.38;99947.84;7630049;32;37070;-76
2022/08/06 20:34:32;;;;;;;3.60;1.67;;;;;;;24.05;47.85;99956.84;7632265;32;39802;-75
2022/08/06 20:38:49;;;;;;;2.33;1.80;;;;;;;23.79;48.47;99956.16;7629717;32;41056;-74
2022/08/06 20:43:12;;;;;;;3.55;1.73;;;;;;;24.04;47.59;99963.56;7629507;32;38809;-75
2022/08/06 20:47:48;;;;;;;1.98;1.70;;;;;;;23.81;47.73;99961.38;7629334;32;38770;-76
2022/08/06 20:52:05;;;;;;;4.12;2.05;;;;;;;23.58;48.05;99961.94;7631828;32;39417;-73
2022/08/06 20:56:21;;;;;;;3.00;1.62;;;;;;;23.35;48.74;99972.84;7633708;32;40859;-77
2022/08/06 21:00:37;;;;;;;2.53;1.80;;;;;;;23.78;47.96;99970.41;7653860;32;38809;-78
2022/08/06 21:04:54;;;;;;;2.20;1.60;;;;;;;23.63;48.19;99972.81;7637313;32;37026;-79